Time;durP1;ratioP1;P1;durP2;ratioP2;P2;SDS_P1;SDS_P2;PMS_P1;PMS_P2;Temp;Humidity;BMP_temperature;BMP_pressure;BME280_temperature;BME280_humidity;BME280_pressure;Samples;Min_cycle;Max_cycle;Signal;HPM_P1;HPM_P2
2023/05/18 00:00:45;;;;;;;17.52;4.25;;;;;;;6.95;83.59;102707.66;5027468;28;20044;-76
2023/05/18 00:03:11;;;;;;;14.48;4.07;;;;;;;6.92;83.93;102705.97;5010646;28;20160;-76
2023/05/18 00:05:41;;;;;;;13.65;4.50;;;;;;;6.93;84.39;102699.00;5012403;28;20049;-76
2023/05/18 00:08:07;;;;;;;12.27;4.10;;;;;;;7.01;85.02;102704.84;5011554;28;20033;-76
2023/05/18 00:10:33;;;;;;;15.85;4.32;;;;;;;6.90;84.82;102699.94;5026185;28;20368;-76
2023/05/18 00:12:58;;;;;;;13.82;4.20;;;;;;;6.88;83.64;102699.97;5028875;28;20033;-76
2023/05/18 00:15:23;;;;;;;16.55;4.03;;;;;;;6.85;84.01;102702.69;5031054;28;20503;-76
2023/05/18 00:17:49;;;;;;;12.63;3.90;;;;;;;6.85;84.59;102702.69;5025799;28;20037;-76
2023/05/18 00:20:16;;;;;;;12.43;4.00;;;;;;;6.87;84.28;102705.25;5031686;28;20037;-76
2023/05/18 00:22:42;;;;;;;14.88;4.13;;;;;;;6.84;84.41;102703.59;5031013;28;20053;-76
2023/05/18 00:25:07;;;;;;;13.35;3.78;;;;;;;6.84;84.50;102714.06;5028931;28;20398;-77
2023/05/18 00:27:33;;;;;;;12.70;3.90;;;;;;;6.78;84.44;102703.72;5029633;28;20485;-76
2023/05/18 00:29:58;;;;;;;11.77;3.78;;;;;;;6.74;84.43;102702.09;5030773;28;20037;-76
2023/05/18 00:32:24;;;;;;;9.52;3.50;;;;;;;6.71;84.66;102707.44;5045935;28;20032;-76
2023/05/18 00:34:51;;;;;;;11.77;4.15;;;;;;;6.62;84.22;102705.06;5025569;28;20397;-76
2023/05/18 00:37:16;;;;;;;11.73;4.35;;;;;;;6.57;84.96;102702.59;5028437;28;20485;-76
2023/05/18 00:39:42;;;;;;;9.38;3.58;;;;;;;6.61;84.82;102711.22;5026715;28;20029;-76
2023/05/18 00:42:07;;;;;;;11.82;4.25;;;;;;;6.59;85.59;102707.78;5044832;28;20033;-76
2023/05/18 00:44:32;;;;;;;12.57;4.13;;;;;;;6.58;85.22;102711.28;5029687;28;20029;-76
2023/05/18 00:46:58;;;;;;;11.02;4.10;;;;;;;6.65;86.30;102715.44;5031106;28;20025;-76
2023/05/18 00:49:24;;;;;;;11.80;3.83;;;;;;;6.54;85.55;102715.75;5022831;28;20076;-76
2023/05/18 00:51:50;;;;;;;11.70;4.32;;;;;;;6.52;85.06;102709.72;5014140;28;20498;-76
2023/05/18 00:54:16;;;;;;;8.57;3.78;;;;;;;6.53;85.18;102710.56;5010056;28;20490;-76
2023/05/18 00:56:45;;;;;;;15.25;3.63;;;;;;;6.56;85.50;102710.47;5021954;28;20033;-76
2023/05/18 00:59:11;;;;;;;10.68;3.80;;;;;;;6.49;85.16;102720.25;5027630;28;20052;-76
2023/05/18 01:01:42;;;;;;;11.25;3.65;;;;;;;6.50;85.41;102713.25;5029724;28;20064;-76
2023/05/18 01:04:09;;;;;;;12.00;4.18;;;;;;;6.46;85.83;102711.63;5027031;28;20512;-76
2023/05/18 01:06:34;;;;;;;9.13;3.35;;;;;;;6.46;86.23;102712.50;5029670;28;20018;-76
2023/05/18 01:09:06;;;;;;;10.43;3.95;;;;;;;6.33;85.80;102718.06;5028269;28;20040;-76
2023/05/18 01:11:49;;;;;;;15.02;4.25;;;;;;;6.38;86.07;102713.56;5027928;28;20406;-76
2023/05/18 01:14:17;;;;;;;14.65;4.10;;;;;;;6.34;85.94;102718.03;5029238;28;20108;-76
2023/05/18 01:16:53;;;;;;;12.23;3.83;;;;;;;6.35;85.89;102718.88;5028822;28;20065;-76
2023/05/18 01:19:37;;;;;;;11.13;3.90;;;;;;;6.38;85.85;102718.78;5029600;28;20113;-76
2023/05/18 01:22:15;;;;;;;8.45;3.80;;;;;;;6.32;86.30;102729.41;5030331;28;20021;-76
2023/05/18 01:24:44;;;;;;;9.77;4.03;;;;;;;6.24;86.23;102717.41;5018424;28;20041;-76
2023/05/18 01:27:13;;;;;;;12.93;4.22;;;;;;;6.20;86.39;102722.75;5022427;28;20502;-76
2023/05/18 01:29:40;;;;;;;14.98;4.70;;;;;;;6.16;86.57;102721.97;5028319;28;20033;-75
2023/05/18 01:32:08;;;;;;;11.38;4.30;;;;;;;6.05;87.27;102725.78;5011084;28;20107;-76
2023/05/18 01:34:33;;;;;;;11.10;4.32;;;;;;;6.03;87.27;102724.94;5029889;28;20025;-76
2023/05/18 01:37:02;;;;;;;11.25;4.35;;;;;;;5.93;87.65;102726.91;5028978;28;20026;-75
2023/05/18 01:39:27;;;;;;;13.73;4.45;;;;;;;5.96;87.66;102732.91;5026258;28;20029;-76
2023/05/18 01:42:05;;;;;;;19.80;4.80;;;;;;;5.99;88.01;102731.97;5013948;28;20040;-76
2023/05/18 01:44:52;;;;;;;12.60;4.45;;;;;;;6.02;87.96;102726.72;5028853;28;20024;-76
2023/05/18 01:47:18;;;;;;;10.05;4.03;;;;;;;6.01;87.93;102724.13;5028205;28;20029;-76
2023/05/18 01:49:55;;;;;;;15.07;4.13;;;;;;;6.06;87.89;102723.13;5028291;28;20044;-76
2023/05/18 01:52:36;;;;;;;12.82;4.32;;;;;;;6.00;88.27;102722.38;5020980;28;20127;-75
2023/05/18 01:55:03;;;;;;;10.50;4.18;;;;;;;6.01;87.60;102724.13;5027762;28;20034;-76
2023/05/18 01:57:35;;;;;;;12.88;4.57;;;;;;;6.02;88.02;102736.31;5017595;28;20113;-76
2023/05/18 02:00:03;;;;;;;15.90;4.90;;;;;;;5.98;88.18;102730.25;5028489;28;20033;-75
2023/05/18 02:02:28;;;;;;;13.30;4.03;;;;;;;6.01;88.68;102730.22;5025575;28;20037;-75
2023/05/18 02:04:54;;;;;;;12.40;4.38;;;;;;;5.96;88.70;102721.59;5028641;28;20033;-76
2023/05/18 02:07:20;;;;;;;12.07;4.30;;;;;;;5.99;88.72;102721.53;5010285;28;20112;-76
2023/05/18 02:09:45;;;;;;;15.93;4.30;;;;;;;6.01;88.52;102717.16;5028982;28;20028;-75
2023/05/18 02:12:11;;;;;;;10.77;4.30;;;;;;;5.96;88.63;102713.75;5023155;28;20112;-75
2023/05/18 02:14:36;;;;;;;9.35;4.03;;;;;;;5.97;89.18;102716.34;5029100;28;20053;-75
2023/05/18 02:17:02;;;;;;;13.10;3.95;;;;;;;5.91;88.64;102710.41;5024281;28;20388;-75
2023/05/18 02:19:29;;;;;;;10.32;4.53;;;;;;;5.88;88.65;102710.47;5027505;28;20037;-76
2023/05/18 02:21:56;;;;;;;12.63;4.65;;;;;;;5.87;88.62;102714.81;5029618;28;20030;-76
2023/05/18 02:24:22;;;;;;;11.93;4.53;;;;;;;5.87;89.43;102712.22;5028593;28;20429;-76
2023/05/18 02:26:47;;;;;;;11.07;4.50;;;;;;;5.84;88.81;102714.91;5028753;28;20017;-75
2023/05/18 02:29:13;;;;;;;10.43;4.03;;;;;;;5.84;89.11;102707.06;5026297;28;20032;-75
2023/05/18 02:31:38;;;;;;;12.07;4.35;;;;;;;5.86;89.25;102710.50;5028118;28;20057;-75
2023/05/18 02:34:04;;;;;;;10.27;4.25;;;;;;;5.90;89.38;102708.69;5027494;28;20057;-75
2023/05/18 02:36:38;;;;;;;10.93;4.60;;;;;;;5.88;89.50;102703.47;5028192;28;20588;-76
2023/05/18 02:39:05;;;;;;;12.07;4.43;;;;;;;5.75;89.06;102704.69;5025496;28;20033;-76
2023/05/18 02:41:34;;;;;;;10.75;4.18;;;;;;;5.84;89.75;102700.97;5028502;28;20437;-76
2023/05/18 02:44:04;;;;;;;11.50;4.28;;;;;;;5.79;89.83;102703.72;5026691;28;20708;-76
2023/05/18 02:46:30;;;;;;;14.48;4.60;;;;;;;5.78;90.15;102695.91;5022709;28;20056;-75
2023/05/18 02:48:56;;;;;;;9.35;4.45;;;;;;;5.78;90.06;102699.38;5044122;28;20095;-76
2023/05/18 02:51:22;;;;;;;9.25;4.28;;;;;;;5.74;90.10;102696.88;5028592;28;20041;-75
2023/05/18 02:53:51;;;;;;;11.55;4.50;;;;;;;5.68;90.00;102704.88;5028043;28;20030;-76
2023/05/18 02:56:17;;;;;;;16.63;4.53;;;;;;;5.69;90.07;102706.59;5026634;28;20021;-75
2023/05/18 02:58:43;;;;;;;11.70;4.90;;;;;;;5.63;90.06;102700.63;5026878;28;20056;-75
2023/05/18 03:01:11;;;;;;;12.50;4.55;;;;;;;5.66;90.21;102703.16;5045902;28;20037;-76
2023/05/18 03:03:37;;;;;;;9.35;4.75;;;;;;;5.64;90.25;102699.72;5027351;28;20046;-75
2023/05/18 03:06:03;;;;;;;10.57;4.35;;;;;;;5.61;90.64;102696.31;5031192;28;20033;-75
2023/05/18 03:08:30;;;;;;;10.07;4.22;;;;;;;5.61;90.40;102705.03;5032533;28;20028;-76
2023/05/18 03:10:56;;;;;;;8.93;4.03;;;;;;;5.58;90.69;102704.19;5032499;28;20021;-76
2023/05/18 03:13:21;;;;;;;12.13;4.13;;;;;;;5.60;90.45;102702.41;5030990;28;20036;-75
2023/05/18 03:15:48;;;;;;;10.88;4.80;;;;;;;5.56;90.94;102699.03;5030690;28;20021;-76
2023/05/18 03:18:13;;;;;;;9.90;4.78;;;;;;;5.56;91.31;102703.38;5029964;28;20029;-76
2023/05/18 03:20:39;;;;;;;13.05;5.00;;;;;;;5.58;91.47;102698.97;5026291;28;20029;-76
2023/05/18 03:23:05;;;;;;;10.10;4.43;;;;;;;5.52;91.19;102704.34;5031389;28;20021;-75
2023/05/18 03:25:31;;;;;;;13.13;4.50;;;;;;;5.47;91.37;102707.06;5031288;28;20014;-75
2023/05/18 03:27:57;;;;;;;12.98;4.65;;;;;;;5.46;91.33;102702.75;5031360;28;20040;-76
2023/05/18 03:30:22;;;;;;;11.93;5.10;;;;;;;5.39;91.41;102708.13;5032508;28;20021;-76
2023/05/18 03:32:51;;;;;;;11.45;4.88;;;;;;;5.38;91.91;102707.28;5028864;28;20041;-76
2023/05/18 03:35:17;;;;;;;11.57;4.47;;;;;;;5.39;91.76;102697.69;5030494;28;20052;-76
2023/05/18 03:37:42;;;;;;;10.05;4.50;;;;;;;5.38;91.91;102702.06;5028893;28;20029;-76
2023/05/18 03:40:12;;;;;;;14.00;5.38;;;;;;;5.39;92.07;102703.78;5027170;28;20236;-76
2023/05/18 03:42:39;;;;;;;10.18;4.88;;;;;;;5.34;91.96;102700.41;5030470;28;20116;-76
2023/05/18 03:45:06;;;;;;;10.35;4.85;;;;;;;5.28;91.77;102696.19;5031813;28;20052;-76
2023/05/18 03:47:32;;;;;;;10.90;5.03;;;;;;;5.29;92.26;102697.91;5029470;28;20056;-76
2023/05/18 03:49:57;;;;;;;13.18;5.28;;;;;;;5.25;92.01;102700.63;5030060;28;20057;-76
2023/05/18 03:52:23;;;;;;;14.27;4.85;;;;;;;5.34;92.66;102703.03;5029125;28;20195;-76
2023/05/18 03:54:49;;;;;;;13.85;5.05;;;;;;;5.24;92.05;102707.59;5026063;28;20504;-76
2023/05/18 03:57:16;;;;;;;16.10;5.50;;;;;;;5.25;92.17;102711.06;5030527;28;20075;-76
2023/05/18 03:59:42;;;;;;;11.15;5.13;;;;;;;5.29;92.92;102703.13;5030938;28;20038;-76
2023/05/18 04:02:07;;;;;;;14.93;5.68;;;;;;;5.27;92.62;102709.28;5029233;28;20400;-75
2023/05/18 04:04:32;;;;;;;13.20;5.18;;;;;;;5.26;91.81;102712.78;5030095;28;20129;-76
2023/05/18 04:07:01;;;;;;;11.25;4.60;;;;;;;5.32;92.36;102718.72;5031374;28;20076;-75
2023/05/18 04:09:28;;;;;;;11.85;5.47;;;;;;;5.36;92.45;102714.28;5031430;28;20469;-76
2023/05/18 04:11:57;;;;;;;12.90;5.43;;;;;;;5.33;92.15;102720.44;5025269;28;20441;-75
2023/05/18 04:14:23;;;;;;;11.60;5.13;;;;;;;5.43;92.80;102728.06;5029854;28;20041;-76
2023/05/18 04:16:51;;;;;;;14.80;5.82;;;;;;;5.43;92.32;102726.31;5031125;28;20433;-76
2023/05/18 04:19:17;;;;;;;9.98;4.90;;;;;;;5.48;91.99;102727.06;5031797;28;20009;-76
2023/05/18 04:21:46;;;;;;;12.90;4.75;;;;;;;5.51;91.90;102736.56;5029456;28;20394;-76
2023/05/18 04:24:13;;;;;;;12.93;5.20;;;;;;;5.51;91.99;102732.22;5010402;28;20045;-75
2023/05/18 04:26:39;;;;;;;10.15;4.85;;;;;;;5.58;91.68;102731.16;5023713;28;20025;-76
2023/05/18 04:29:06;;;;;;;13.80;5.07;;;;;;;5.53;91.53;102733.03;5023546;28;20028;-76
2023/05/18 04:31:35;;;;;;;12.40;5.43;;;;;;;5.62;91.82;102732.84;5030081;28;20032;-76
2023/05/18 04:34:01;;;;;;;13.95;5.30;;;;;;;5.70;91.70;102734.41;5012584;28;20482;-76
2023/05/18 04:36:29;;;;;;;14.63;5.68;;;;;;;5.65;92.47;102731.91;5030818;28;20071;-76
2023/05/18 04:38:57;;;;;;;12.23;5.38;;;;;;;5.75;92.11;102737.78;5029723;28;20053;-76
2023/05/18 04:41:23;;;;;;;10.40;4.93;;;;;;;5.74;91.52;102736.91;5029019;28;20029;-76
2023/05/18 04:43:52;;;;;;;11.80;4.97;;;;;;;5.65;92.12;102732.78;5029067;28;20482;-76
2023/05/18 04:46:18;;;;;;;12.95;5.18;;;;;;;5.73;91.42;102734.34;5026277;28;20477;-76
2023/05/18 04:48:48;;;;;;;13.90;5.63;;;;;;;5.74;92.17;102742.16;5031403;28;20028;-76
2023/05/18 04:51:20;;;;;;;15.25;5.82;;;;;;;5.74;92.04;102741.28;5029360;28;20060;-75
2023/05/18 04:53:48;;;;;;;13.60;5.30;;;;;;;5.79;91.42;102742.03;5046453;28;20018;-76
2023/05/18 04:56:25;;;;;;;13.77;5.38;;;;;;;5.82;91.35;102745.44;5027939;28;20568;-76
2023/05/18 04:58:50;;;;;;;14.10;5.75;;;;;;;5.86;90.83;102746.22;5029359;28;20420;-76
2023/05/18 05:01:17;;;;;;;15.13;5.65;;;;;;;5.84;90.54;102748.00;5027673;28;20112;-76
2023/05/18 05:03:45;;;;;;;13.88;5.80;;;;;;;5.85;90.91;102749.72;5039538;28;20498;-76
2023/05/18 05:06:10;;;;;;;13.77;5.43;;;;;;;5.92;90.76;102748.69;5028978;28;20033;-76
2023/05/18 05:08:37;;;;;;;15.07;6.20;;;;;;;5.98;89.93;102746.78;5045481;28;20394;-76
2023/05/18 05:11:05;;;;;;;11.50;5.15;;;;;;;5.98;89.88;102752.03;5044981;28;20484;-76
2023/05/18 05:13:30;;;;;;;11.18;5.50;;;;;;;6.06;90.05;102746.63;5026945;28;20052;-76
2023/05/18 05:15:56;;;;;;;12.95;5.65;;;;;;;6.11;89.47;102744.75;5030227;28;20053;-76
2023/05/18 05:18:21;;;;;;;13.65;5.30;;;;;;;6.13;89.28;102748.19;5028042;28;20037;-76
2023/05/18 05:20:49;;;;;;;14.23;5.72;;;;;;;6.16;88.99;102755.09;5029327;28;20420;-76
2023/05/18 05:23:15;;;;;;;15.00;5.13;;;;;;;6.17;88.44;102751.59;5028842;28;20052;-76
2023/05/18 05:25:40;;;;;;;14.05;5.32;;;;;;;6.14;87.90;102744.69;5027868;28;20021;-76
2023/05/18 05:28:13;;;;;;;14.10;5.00;;;;;;;6.18;88.07;102748.94;5027327;28;20517;-76
2023/05/18 05:30:38;;;;;;;;;;;;;;;6.29;87.11;102746.91;5024663;28;20029;-76
2023/05/18 05:33:03;;;;;;;13.10;5.53;;;;;;;6.22;87.73;102749.72;5027137;28;19920;-76
2023/05/18 05:35:32;;;;;;;16.40;5.43;;;;;;;6.17;87.52;102752.44;5029685;28;20437;-76
2023/05/18 05:37:57;;;;;;;16.15;5.70;;;;;;;6.22;87.91;102755.78;5029364;28;20033;-76
2023/05/18 05:40:23;;;;;;;14.35;5.57;;;;;;;6.24;87.54;102750.53;5029223;28;20070;-76
2023/05/18 05:42:49;;;;;;;10.20;5.35;;;;;;;6.40;87.16;102743.16;5029453;28;20395;-76
2023/05/18 05:45:14;;;;;;;15.27;5.20;;;;;;;6.46;87.28;102743.00;5030365;28;20029;-76
2023/05/18 05:47:40;;;;;;;15.18;6.13;;;;;;;6.54;86.58;102746.28;5022400;28;20569;-76
2023/05/18 05:50:06;;;;;;;18.27;5.82;;;;;;;6.57;85.90;102743.56;5029065;28;20037;-76
2023/05/18 05:52:31;;;;;;;15.30;5.90;;;;;;;6.64;85.64;102747.72;5011661;28;20025;-76
2023/05/18 05:54:56;;;;;;;17.20;6.35;;;;;;;6.67;85.29;102750.25;5028919;28;20021;-76
2023/05/18 05:57:34;;;;;;;14.32;5.28;;;;;;;6.69;84.60;102753.69;5029322;28;20108;-76
2023/05/18 06:00:03;;;;;;;18.95;6.60;;;;;;;6.72;84.45;102750.13;5028101;28;20033;-76
2023/05/18 06:02:30;;;;;;;14.43;5.60;;;;;;;6.80;84.84;102743.78;5028577;28;20084;-76
2023/05/18 06:04:55;;;;;;;14.15;6.18;;;;;;;6.87;84.70;102745.34;5024807;28;20471;-77
2023/05/18 06:07:20;;;;;;;14.65;5.45;;;;;;;6.90;83.81;102749.66;5029225;28;20021;-77
2023/05/18 06:09:46;;;;;;;19.55;6.55;;;;;;;6.95;83.06;102746.91;5043245;28;20033;-77
2023/05/18 06:12:18;;;;;;;17.48;6.32;;;;;;;6.95;82.60;102752.13;5028641;28;20043;-76
2023/05/18 06:14:43;;;;;;;12.68;5.70;;;;;;;7.02;82.35;102745.81;5029112;28;20033;-76
2023/05/18 06:17:09;;;;;;;14.85;6.10;;;;;;;7.03;82.11;102747.53;5028207;28;20025;-75
2023/05/18 06:19:34;;;;;;;16.85;6.63;;;;;;;7.13;82.67;102756.81;5029131;28;20029;-76
2023/05/18 06:22:04;;;;;;;13.65;5.90;;;;;;;7.19;81.86;102748.78;5043702;28;20053;-78
2023/05/18 06:24:30;;;;;;;15.57;6.78;;;;;;;7.25;82.36;102746.03;5032785;28;20021;-78
2023/05/18 06:26:55;;;;;;;15.63;6.47;;;;;;;7.22;80.48;102752.22;5029493;28;20021;-77
2023/05/18 06:29:21;;;;;;;14.20;5.70;;;;;;;7.32;80.96;102758.03;5029196;28;20065;-77
2023/05/18 06:31:47;;;;;;;14.15;6.25;;;;;;;7.37;79.86;102757.88;5029579;28;20032;-77
2023/05/18 06:34:18;;;;;;;21.98;6.95;;;;;;;7.48;79.97;102751.41;5027951;28;20030;-78
2023/05/18 06:36:45;;;;;;;16.08;5.90;;;;;;;7.59;80.37;102752.84;5030192;28;20386;-78
2023/05/18 06:39:10;;;;;;;11.13;5.63;;;;;;;7.70;79.70;102758.63;5031560;28;20555;-76
2023/05/18 06:41:36;;;;;;;14.20;6.20;;;;;;;7.77;78.87;102763.63;5027098;28;20049;-77
2023/05/18 06:44:04;;;;;;;13.85;5.90;;;;;;;7.84;77.88;102766.91;5032023;28;20072;-76
2023/05/18 06:46:30;;;;;;;13.85;6.25;;;;;;;7.90;77.29;102755.34;5032084;28;20452;-76
2023/05/18 06:48:55;;;;;;;16.08;5.93;;;;;;;7.97;77.85;102767.34;4980694;28;20026;-76
2023/05/18 06:51:22;;;;;;;15.93;5.80;;;;;;;8.05;76.71;102758.34;5030341;28;20095;-76
2023/05/18 06:53:47;;;;;;;15.32;5.95;;;;;;;8.22;76.61;102759.56;5029890;28;20033;-76
2023/05/18 06:56:12;;;;;;;15.88;5.47;;;;;;;8.26;75.14;102764.63;5030867;28;20048;-76
2023/05/18 06:58:40;;;;;;;14.43;5.80;;;;;;;8.49;75.43;102756.03;5026984;28;20104;-76
2023/05/18 07:01:05;;;;;;;16.05;6.10;;;;;;;8.54;73.94;102761.97;5027890;28;20037;-76
2023/05/18 07:03:31;;;;;;;21.33;5.93;;;;;;;8.65;73.52;102766.84;5029834;28;20056;-77
2023/05/18 07:05:57;;;;;;;15.30;5.35;;;;;;;8.92;73.95;102772.88;5030849;28;20453;-76
2023/05/18 07:08:25;;;;;;;14.55;5.80;;;;;;;9.15;72.57;102766.78;5014021;28;20474;-76
2023/05/18 07:10:54;;;;;;;18.38;5.57;;;;;;;9.28;71.03;102766.28;5031762;28;20026;-75
2023/05/18 07:13:19;;;;;;;13.20;5.57;;;;;;;9.51;71.35;102775.03;5032168;28;20056;-75
2023/05/18 07:15:44;;;;;;;12.68;5.13;;;;;;;9.67;69.73;102773.56;5030921;28;20029;-75
2023/05/18 07:18:10;;;;;;;15.57;6.18;;;;;;;9.65;68.65;102775.38;5008733;28;20026;-75
2023/05/18 07:20:35;;;;;;;15.80;5.55;;;;;;;9.79;68.98;102780.94;5018182;28;20069;-76
2023/05/18 07:23:00;;;;;;;14.50;5.88;;;;;;;9.96;69.31;102777.63;5028196;28;20036;-76
2023/05/18 07:25:26;;;;;;;12.20;5.38;;;;;;;10.14;68.71;102781.31;5030830;28;20035;-76
2023/05/18 07:27:53;;;;;;;8.70;5.55;;;;;;;10.34;66.91;102783.97;5029104;28;20609;-75
2023/05/18 07:30:18;;;;;;;13.50;5.40;;;;;;;10.52;66.09;102782.38;5032630;28;20029;-76
2023/05/18 07:32:44;;;;;;;12.82;4.90;;;;;;;10.57;64.54;102778.63;5031610;28;20036;-75
2023/05/18 07:35:10;;;;;;;14.13;5.25;;;;;;;10.72;64.67;102784.13;5031630;28;20378;-75
2023/05/18 07:37:35;;;;;;;14.52;5.07;;;;;;;10.72;64.85;102784.13;5030885;28;20417;-75
2023/05/18 07:40:03;;;;;;;12.15;5.15;;;;;;;10.84;63.80;102781.84;5029975;28;20437;-76
2023/05/18 07:42:28;;;;;;;11.73;4.90;;;;;;;10.91;63.01;102790.31;5030500;28;20033;-76
2023/05/18 07:44:54;;;;;;;11.88;5.07;;;;;;;11.22;63.06;102780.13;5031182;28;20013;-76
2023/05/18 07:47:20;;;;;;;12.93;5.45;;;;;;;11.40;62.41;102788.94;5029468;28;20021;-75
2023/05/18 07:49:46;;;;;;;12.77;4.80;;;;;;;11.77;62.05;102788.06;5029891;28;20032;-76
2023/05/18 07:52:12;;;;;;;13.48;5.47;;;;;;;11.72;61.19;102784.81;5030850;28;20038;-75
2023/05/18 07:54:38;;;;;;;10.93;5.03;;;;;;;11.88;60.64;102791.06;5030803;28;20385;-75
2023/05/18 07:57:05;;;;;;;16.60;5.03;;;;;;;11.90;59.79;102791.00;5031119;28;20050;-76
2023/05/18 07:59:30;;;;;;;14.23;4.75;;;;;;;12.29;59.74;102789.97;5030043;28;20470;-76
2023/05/18 08:01:57;;;;;;;14.60;5.35;;;;;;;12.20;58.64;102791.28;5028663;28;20084;-75
2023/05/18 08:04:23;;;;;;;13.00;5.18;;;;;;;12.60;58.80;102789.28;5028526;28;20045;-74
2023/05/18 08:06:48;;;;;;;15.55;5.35;;;;;;;12.78;57.88;102793.59;5011322;28;20111;-75
2023/05/18 08:09:14;;;;;;;11.38;4.70;;;;;;;13.05;57.13;102784.22;5044792;28;20029;-74
2023/05/18 08:11:47;;;;;;;16.48;5.35;;;;;;;13.39;59.18;102785.09;5031175;28;20025;-75
2023/05/18 08:14:12;;;;;;;11.30;5.10;;;;;;;13.60;55.74;102791.81;5020878;28;20522;-75
2023/05/18 08:16:38;;;;;;;13.95;4.82;;;;;;;13.39;54.55;102788.59;5024488;28;20029;-75
2023/05/18 08:19:03;;;;;;;12.05;4.65;;;;;;;13.34;55.09;102792.41;5027598;28;20025;-75
2023/05/18 08:21:28;;;;;;;15.13;5.18;;;;;;;13.40;54.26;102789.44;5045621;28;20071;-75
2023/05/18 08:23:54;;;;;;;14.13;4.57;;;;;;;13.34;54.16;102788.00;5029796;28;20945;-76
2023/05/18 08:26:20;;;;;;;16.20;5.35;;;;;;;13.58;54.89;102788.41;5030129;28;20037;-75
2023/05/18 08:28:50;;;;;;;13.85;5.07;;;;;;;13.65;56.06;102781.00;5029257;28;20029;-75
2023/05/18 08:31:18;;;;;;;13.50;4.82;;;;;;;13.75;54.44;102790.13;5030316;28;20049;-74
2023/05/18 08:33:44;;;;;;;15.07;4.47;;;;;;;13.90;52.27;102783.09;5030781;28;20036;-74
2023/05/18 08:36:10;;;;;;;16.13;5.10;;;;;;;14.10;51.76;102772.25;5026368;28;20029;-75
2023/05/18 08:38:35;;;;;;;13.40;4.63;;;;;;;14.35;51.32;102772.50;5029262;28;20390;-75
2023/05/18 08:41:07;;;;;;;15.90;4.95;;;;;;;14.70;51.69;102766.94;5014995;28;20026;-75
2023/05/18 08:43:36;;;;;;;12.30;4.13;;;;;;;15.01;50.15;102757.94;5009873;28;20378;-75
2023/05/18 08:46:27;;;;;;;10.80;4.40;;;;;;;15.37;49.83;102762.75;5011627;28;20054;-74
2023/05/18 08:48:54;;;;;;;7.60;3.50;;;;;;;15.07;48.74;102764.66;5015664;28;20036;-74
2023/05/18 08:51:20;;;;;;;13.07;3.85;;;;;;;15.07;48.41;102759.38;5030912;28;20508;-74
2023/05/18 08:53:52;;;;;;;13.85;3.97;;;;;;;15.17;47.63;102763.13;5030546;28;20029;-75
2023/05/18 08:56:21;;;;;;;14.10;4.00;;;;;;;14.74;47.86;102760.50;5025133;28;20680;-75
2023/05/18 08:58:55;;;;;;;11.57;3.90;;;;;;;14.73;48.57;102761.44;5029461;28;20053;-74
2023/05/18 09:01:26;;;;;;;11.30;4.15;;;;;;;14.77;49.15;102751.50;5028748;28;20401;-74
2023/05/18 09:03:52;;;;;;;16.00;4.30;;;;;;;14.81;48.14;102753.91;5043982;28;20057;-74
2023/05/18 09:06:19;;;;;;;12.18;4.55;;;;;;;14.88;48.20;102749.06;5030114;28;20112;-74
2023/05/18 09:08:45;;;;;;;10.00;4.18;;;;;;;15.31;47.94;102755.19;5029767;28;20459;-74
2023/05/18 09:11:15;;;;;;;10.85;4.28;;;;;;;15.45;47.33;102747.19;5029412;28;20032;-74
2023/05/18 09:13:42;;;;;;;10.57;3.80;;;;;;;15.92;46.63;102748.56;5025913;28;20487;-74
2023/05/18 09:16:07;;;;;;;10.10;4.00;;;;;;;16.02;44.88;102754.16;5027882;28;20045;-74
2023/05/18 09:18:32;;;;;;;10.05;3.33;;;;;;;15.75;45.65;102751.50;5029348;28;20552;-74
2023/05/18 09:20:58;;;;;;;9.55;3.60;;;;;;;15.61;44.58;102753.25;5030285;28;20050;-75
2023/05/18 09:23:23;;;;;;;9.25;3.85;;;;;;;15.59;45.38;102747.16;5030191;28;20052;-74
2023/05/18 09:25:51;;;;;;;8.88;3.67;;;;;;;15.73;45.42;102748.09;5027444;28;20028;-75
2023/05/18 09:28:31;;;;;;;10.48;3.90;;;;;;;15.86;44.56;102759.59;5030441;28;20029;-75
2023/05/18 09:30:57;;;;;;;12.98;3.58;;;;;;;15.81;41.41;102751.94;5046005;28;20102;-74
2023/05/18 09:33:23;;;;;;;11.20;3.28;;;;;;;15.90;41.59;102745.19;5024962;28;20029;-75
2023/05/18 09:35:51;;;;;;;12.30;3.88;;;;;;;16.01;42.55;102737.38;5030280;28;20038;-75
2023/05/18 09:38:21;;;;;;;12.48;3.85;;;;;;;16.41;41.96;102740.84;5029993;28;20021;-75
2023/05/18 09:40:48;;;;;;;14.70;4.20;;;;;;;16.53;42.71;102740.00;5029681;28;20037;-75
2023/05/18 09:43:17;;;;;;;9.43;3.40;;;;;;;16.59;43.71;102741.38;5030125;28;20461;-75
2023/05/18 09:45:44;;;;;;;13.15;3.88;;;;;;;16.91;43.62;102733.84;5030392;28;20481;-75
2023/05/18 09:48:10;;;;;;;10.07;3.85;;;;;;;17.27;42.35;102734.84;5011556;28;20122;-75
2023/05/18 09:50:36;;;;;;;10.73;3.80;;;;;;;17.44;40.82;102727.31;5025454;28;20045;-75
2023/05/18 09:53:06;;;;;;;11.10;4.13;;;;;;;17.86;40.06;102743.78;5029748;28;20091;-75
2023/05/18 09:55:31;;;;;;;13.63;4.40;;;;;;;18.12;39.02;102732.03;5029817;28;20033;-75
2023/05/18 09:57:57;;;;;;;10.52;3.65;;;;;;;18.51;38.84;102718.44;5029974;28;20480;-76
2023/05/18 10:00:24;;;;;;;11.30;3.58;;;;;;;18.50;37.75;102730.06;5028581;28;20504;-75
2023/05/18 10:02:51;;;;;;;9.75;3.90;;;;;;;18.33;37.42;102726.00;5029165;28;20081;-76
2023/05/18 10:05:32;;;;;;;15.40;3.97;;;;;;;18.15;38.05;102729.13;5029359;28;20033;-75
2023/05/18 10:08:02;;;;;;;14.40;3.88;;;;;;;18.09;38.35;102724.28;5023281;28;20371;-76
2023/05/18 10:10:28;;;;;;;13.38;3.65;;;;;;;17.64;36.82;102725.88;5029299;28;20540;-75
2023/05/18 10:12:54;;;;;;;11.52;4.13;;;;;;;17.28;39.05;102716.09;5030685;28;20045;-75
2023/05/18 10:15:22;;;;;;;12.80;3.92;;;;;;;16.97;39.63;102716.59;5043921;28;20033;-74
2023/05/18 10:17:54;;;;;;;10.77;3.85;;;;;;;16.68;40.64;102711.53;5029149;28;20040;-74
2023/05/18 10:20:26;;;;;;;10.85;3.78;;;;;;;16.55;40.63;102716.81;5029013;28;20029;-75
2023/05/18 10:22:54;;;;;;;8.13;3.30;;;;;;;16.34;40.74;102709.47;5028067;28;20491;-75
2023/05/18 10:25:25;;;;;;;9.32;3.65;;;;;;;16.54;41.42;102715.13;5023668;28;20025;-74
2023/05/18 10:27:56;;;;;;;11.00;3.55;;;;;;;16.30;41.60;102703.50;5015018;28;20025;-75
2023/05/18 10:30:22;;;;;;;9.93;3.70;;;;;;;16.23;41.74;102705.75;5024763;28;20545;-74
2023/05/18 10:32:50;;;;;;;10.02;3.63;;;;;;;16.27;42.74;102711.69;5010292;28;20030;-75
2023/05/18 10:35:20;;;;;;;12.02;4.07;;;;;;;15.91;41.39;102715.03;5007887;28;20041;-74
2023/05/18 10:37:46;;;;;;;10.32;3.80;;;;;;;16.03;41.61;102708.91;5024865;28;20029;-75
2023/05/18 10:40:14;;;;;;;8.90;3.53;;;;;;;15.79;41.86;102706.06;5009734;28;20553;-75
2023/05/18 10:42:40;;;;;;;12.55;4.38;;;;;;;15.91;41.89;102707.06;5013981;28;20386;-75
2023/05/18 10:45:08;;;;;;;9.35;3.90;;;;;;;15.93;41.37;102707.81;5030031;28;20067;-75
2023/05/18 10:47:38;;;;;;;8.18;3.72;;;;;;;16.18;42.50;102701.69;5029417;28;20055;-73
2023/05/18 10:50:04;;;;;;;12.65;3.83;;;;;;;16.18;41.45;102697.25;5028463;28;20036;-74
2023/05/18 10:52:31;;;;;;;9.10;3.70;;;;;;;16.21;41.90;102702.34;5029602;28;20436;-74
2023/05/18 10:55:07;;;;;;;10.70;4.15;;;;;;;16.24;41.89;102707.44;5029326;28;20021;-74
2023/05/18 10:57:44;;;;;;;10.13;3.50;;;;;;;16.15;41.96;102701.91;5028809;28;20120;-74
2023/05/18 11:00:11;;;;;;;12.07;4.05;;;;;;;16.10;42.75;102694.25;5023934;28;20068;-75
2023/05/18 11:02:41;;;;;;;13.32;4.28;;;;;;;15.94;42.59;102705.03;5028559;28;20038;-75
2023/05/18 11:05:08;;;;;;;11.57;4.25;;;;;;;15.91;42.01;102693.78;5027922;28;20018;-75
2023/05/18 11:07:36;;;;;;;14.27;4.75;;;;;;;15.83;42.62;102694.28;5028154;28;20030;-75
2023/05/18 11:10:06;;;;;;;11.93;4.32;;;;;;;16.11;42.46;102695.09;5028325;28;20021;-75
2023/05/18 11:12:33;;;;;;;11.13;4.70;;;;;;;16.06;41.89;102687.47;5043382;28;20025;-75
2023/05/18 11:15:00;;;;;;;11.10;4.00;;;;;;;16.02;42.93;102685.97;5028675;28;20152;-75
2023/05/18 11:17:28;;;;;;;11.13;4.40;;;;;;;16.01;42.43;102688.69;5023349;28;20034;-75
2023/05/18 11:20:07;;;;;;;10.48;4.05;;;;;;;16.00;42.84;102682.53;5028680;28;20025;-75
2023/05/18 11:22:47;;;;;;;9.90;4.53;;;;;;;15.71;42.54;102687.16;5030822;28;20444;-75
2023/05/18 11:25:24;;;;;;;10.75;4.20;;;;;;;15.75;41.97;102687.81;5030990;28;20030;-75